Time;durP1;ratioP1;P1;durP2;ratioP2;P2;SDS_P1;SDS_P2;PMS_P1;PMS_P2;Temp;Humidity;BMP_temperature;BMP_pressure;BME280_temperature;BME280_humidity;BME280_pressure;Samples;Min_cycle;Max_cycle;Signal;HPM_P1;HPM_P2
2022/03/05 00:02:15;;;;;;;71.40;36.78;;;;;;;3.44;63.63;100244.06;4379379;32;33796;-64
2022/03/05 00:04:45;;;;;;;73.10;36.58;;;;;;;4.51;60.12;100244.75;4391155;32;33549;-64
2022/03/05 00:07:12;;;;;;;75.07;37.78;;;;;;;5.05;58.28;100240.16;4390520;32;32100;-64
2022/03/05 00:09:40;;;;;;;72.68;33.88;;;;;;;5.12;57.73;100248.44;4393457;32;33784;-62
2022/03/05 00:12:08;;;;;;;72.70;34.45;;;;;;;3.93;60.29;100237.72;4393218;32;33555;-65
2022/03/05 00:14:35;;;;;;;63.17;33.00;;;;;;;3.56;62.40;100242.50;4393133;32;34708;-64
2022/03/05 00:17:05;;;;;;;69.95;33.13;;;;;;;4.46;59.37;100246.09;4390702;32;33433;-65
2022/03/05 00:19:33;;;;;;;60.47;30.23;;;;;;;4.26;59.77;100235.97;4392974;32;33849;-65
2022/03/05 00:22:01;;;;;;;63.75;30.55;;;;;;;2.84;65.17;100250.37;4389684;32;33974;-65
2022/03/05 00:24:28;;;;;;;67.90;32.25;;;;;;;2.60;66.22;100248.34;4392854;32;34674;-63
2022/03/05 00:26:56;;;;;;;63.47;32.10;;;;;;;2.40;67.31;100242.47;4392100;32;34398;-64
2022/03/05 00:29:25;;;;;;;67.78;32.72;;;;;;;2.50;67.52;100247.56;4393273;32;33491;-64
2022/03/05 00:31:52;;;;;;;62.85;31.20;;;;;;;2.45;67.98;100238.59;4392922;32;34070;-64
2022/03/05 00:34:20;;;;;;;58.40;30.50;;;;;;;2.70;67.07;100241.53;4392789;32;34693;-64
2022/03/05 00:36:48;;;;;;;59.17;30.25;;;;;;;3.06;65.57;100239.34;4393144;32;33645;-63
2022/03/05 00:39:15;;;;;;;64.95;30.65;;;;;;;2.59;67.32;100241.41;4391830;32;32555;-63
2022/03/05 00:41:43;;;;;;;64.10;31.17;;;;;;;3.04;65.79;100243.44;4391137;32;33896;-63
2022/03/05 00:44:11;;;;;;;65.37;31.25;;;;;;;2.47;67.55;100242.22;4391130;32;33895;-62
2022/03/05 00:46:40;;;;;;;61.08;29.90;;;;;;;2.52;67.86;100235.81;4391301;32;33206;-63
2022/03/05 00:49:08;;;;;;;65.45;29.67;;;;;;;2.39;68.20;100239.78;4392250;32;34091;-64
2022/03/05 00:51:35;;;;;;;62.83;31.27;;;;;;;2.56;67.17;100232.72;4391967;32;33872;-64
2022/03/05 00:54:03;;;;;;;64.05;30.77;;;;;;;2.33;67.74;100235.03;4392921;32;33949;-63
2022/03/05 00:56:30;;;;;;;64.85;29.27;;;;;;;2.22;68.12;100228.13;4391869;32;33430;-64
2022/03/05 00:58:58;;;;;;;63.33;31.65;;;;;;;2.35;67.48;100226.72;4392656;32;33667;-64
2022/03/05 01:01:25;;;;;;;63.87;30.95;;;;;;;2.21;67.70;100221.22;4391912;32;33834;-63
2022/03/05 01:03:53;;;;;;;63.28;30.17;;;;;;;2.31;67.32;100218.69;4391926;32;33834;-65
2022/03/05 01:06:21;;;;;;;57.60;28.58;;;;;;;2.63;65.98;100225.59;4396210;32;33615;-63
2022/03/05 01:08:48;;;;;;;57.03;30.48;;;;;;;2.32;66.63;100220.47;4391771;32;33800;-64
2022/03/05 01:11:16;;;;;;;62.35;29.80;;;;;;;2.30;67.15;100227.13;4392468;32;34025;-64
2022/03/05 01:13:44;;;;;;;62.88;30.08;;;;;;;2.77;65.66;100222.50;4387094;32;33648;-64
2022/03/05 01:16:12;;;;;;;56.53;28.55;;;;;;;3.00;64.84;100221.81;4392232;32;34118;-65
2022/03/05 01:18:40;;;;;;;60.15;27.92;;;;;;;3.13;63.79;100214.38;4393755;32;34044;-63
2022/03/05 01:21:08;;;;;;;59.72;30.25;;;;;;;3.79;62.12;100215.25;4393912;32;33910;-65
2022/03/05 01:23:35;;;;;;;52.35;28.50;;;;;;;3.81;61.71;100218.84;4394401;32;33600;-64
2022/03/05 01:26:03;;;;;;;53.55;27.75;;;;;;;3.84;61.36;100216.47;4393603;32;33336;-64
2022/03/05 01:28:31;;;;;;;51.95;28.00;;;;;;;4.04;60.41;100212.94;4393604;32;34631;-63
2022/03/05 01:30:59;;;;;;;57.28;28.08;;;;;;;2.96;64.29;100217.22;4380878;32;32737;-63
2022/03/05 01:33:27;;;;;;;52.45;27.13;;;;;;;2.47;66.16;100231.06;4396305;32;33798;-65
2022/03/05 01:35:55;;;;;;;68.18;29.83;;;;;;;2.43;67.12;100218.81;4391731;32;33590;-65
2022/03/05 01:38:22;;;;;;;53.03;27.02;;;;;;;2.54;66.39;100221.47;4391393;32;33602;-64
2022/03/05 01:40:51;;;;;;;55.65;27.42;;;;;;;1.95;68.25;100223.37;4393027;32;34706;-64
2022/03/05 01:43:19;;;;;;;64.40;28.77;;;;;;;1.68;69.61;100224.44;4391814;32;34312;-66
2022/03/05 01:45:46;;;;;;;59.35;27.77;;;;;;;1.71;69.63;100218.69;4391917;32;34137;-62
2022/03/05 01:48:14;;;;;;;61.72;27.30;;;;;;;1.77;69.62;100216.66;4390267;32;34998;-63
2022/03/05 01:50:41;;;;;;;61.40;28.23;;;;;;;1.82;68.63;100219.63;4392207;32;33588;-64
2022/03/05 01:53:09;;;;;;;58.70;28.20;;;;;;;2.07;67.78;100223.50;4392460;32;33987;-62
2022/03/05 01:55:36;;;;;;;54.80;26.48;;;;;;;3.38;62.77;100210.31;4394158;32;33346;-63
2022/03/05 01:58:04;;;;;;;56.08;27.35;;;;;;;3.21;62.42;100220.09;4393163;32;33837;-63
2022/03/05 02:00:31;;;;;;;55.20;26.17;;;;;;;2.85;63.63;100229.12;4392981;32;34677;-64
2022/03/05 02:02:59;;;;;;;51.05;24.92;;;;;;;3.34;62.11;100216.84;4386874;27;34650;-87
2022/03/05 02:05:28;;;;;;;54.90;25.95;;;;;;;3.41;61.88;100213.13;4385717;32;32935;-85
2022/03/05 02:07:55;;;;;;;53.28;25.55;;;;;;;2.85;63.05;100226.56;4389012;27;32290;-66
2022/03/05 02:10:27;;;;;;;53.45;25.88;;;;;;;3.15;62.00;100224.72;4393588;32;34033;-66
2022/03/05 02:12:55;;;;;;;55.12;26.70;;;;;;;2.77;63.51;100232.72;4393163;32;34463;-66
2022/03/05 02:15:22;;;;;;;58.28;25.58;;;;;;;2.87;62.63;100227.59;4393702;32;33278;-66
2022/03/05 02:17:50;;;;;;;52.17;23.33;;;;;;;2.98;62.85;100228.47;4394093;32;33848;-66
2022/03/05 02:20:17;;;;;;;50.42;22.65;;;;;;;3.12;62.01;100232.16;4393727;32;33929;-66
2022/03/05 02:22:44;;;;;;;56.80;25.70;;;;;;;3.16;61.48;100234.19;4394106;32;34245;-66
2022/03/05 02:25:12;;;;;;;49.17;24.40;;;;;;;2.55;62.75;100241.19;4393619;32;33882;-66
2022/03/05 02:27:40;;;;;;;56.90;24.25;;;;;;;2.71;62.80;100247.56;4393566;32;34789;-66
2022/03/05 02:30:08;;;;;;;49.05;23.90;;;;;;;2.88;62.02;100239.63;4391407;32;33785;-67
2022/03/05 02:32:36;;;;;;;54.65;24.65;;;;;;;2.68;62.51;100242.19;4392497;32;33917;-67
2022/03/05 02:35:04;;;;;;;54.10;25.23;;;;;;;2.92;62.17;100239.09;4392968;32;34167;-68
2022/03/05 02:37:32;;;;;;;54.05;25.55;;;;;;;2.69;62.59;100244.00;4392498;32;34759;-67
2022/03/05 02:39:59;;;;;;;59.10;26.75;;;;;;;2.54;63.00;100238.50;4380362;32;34820;-67
2022/03/05 02:42:27;;;;;;;54.78;26.08;;;;;;;1.43;67.38;100248.59;4396347;32;33858;-67
2022/03/05 02:44:55;;;;;;;53.83;25.27;;;;;;;1.48;67.71;100247.34;4393749;32;33745;-67
2022/03/05 02:47:22;;;;;;;52.78;26.00;;;;;;;1.75;66.76;100247.19;4393770;32;34357;-67
2022/03/05 02:49:50;;;;;;;54.97;27.02;;;;;;;1.74;67.75;100247.06;4393954;32;33866;-67
2022/03/05 02:52:18;;;;;;;64.00;27.62;;;;;;;1.33;68.28;100247.78;4393604;32;34555;-66
2022/03/05 02:54:45;;;;;;;58.28;26.30;;;;;;;1.35;68.55;100256.50;4393809;32;34216;-68
2022/03/05 02:57:13;;;;;;;55.03;25.27;;;;;;;2.87;63.38;100248.06;4393642;32;34264;-68
2022/03/05 02:59:40;;;;;;;53.70;25.55;;;;;;;2.16;65.22;100239.63;4393351;32;34594;-67
2022/03/05 03:02:08;;;;;;;54.55;25.42;;;;;;;2.10;64.88;100244.19;4393043;32;33760;-67
2022/03/05 03:04:35;;;;;;;55.72;25.70;;;;;;;1.49;67.37;100246.59;4384486;32;33413;-67
2022/03/05 03:07:03;;;;;;;57.97;27.48;;;;;;;1.34;67.89;100248.69;4393580;32;33581;-68
2022/03/05 03:09:31;;;;;;;53.97;26.00;;;;;;;1.22;68.15;100248.50;4393478;32;34770;-67
2022/03/05 03:11:58;;;;;;;55.22;25.62;;;;;;;1.86;65.86;100247.22;4393761;32;34117;-67
2022/03/05 03:14:26;;;;;;;61.65;27.50;;;;;;;2.38;63.75;100246.56;4393326;32;34327;-68
2022/03/05 03:16:53;;;;;;;52.72;25.33;;;;;;;1.42;67.02;100246.81;4393774;32;34041;-68
2022/03/05 03:19:21;;;;;;;55.90;24.63;;;;;;;1.44;67.55;100243.63;4392949;32;33891;-67
2022/03/05 03:21:48;;;;;;;56.80;25.55;;;;;;;1.32;67.70;100251.09;4393203;32;33953;-67
2022/03/05 03:24:16;;;;;;;51.37;24.70;;;;;;;1.10;68.42;100248.31;4382481;32;34245;-68
2022/03/05 03:26:45;;;;;;;61.00;25.50;;;;;;;0.95;69.07;100252.03;4393231;32;34412;-67
2022/03/05 03:29:13;;;;;;;52.10;24.95;;;;;;;1.10;68.49;100247.37;4393712;32;33908;-67
2022/03/05 03:31:40;;;;;;;63.70;27.33;;;;;;;1.53;66.75;100241.00;4392620;32;33914;-68
2022/03/05 03:34:08;;;;;;;62.00;29.10;;;;;;;1.22;67.69;100248.50;4393177;32;33390;-68
2022/03/05 03:36:36;;;;;;;55.80;24.70;;;;;;;1.23;67.99;100244.28;4392806;32;34659;-67
2022/03/05 03:39:04;;;;;;;54.13;26.15;;;;;;;1.30;67.85;100246.63;4392807;32;32462;-67
2022/03/05 03:41:31;;;;;;;54.60;24.85;;;;;;;1.12;68.54;100245.88;4393144;32;33301;-68
2022/03/05 03:43:59;;;;;;;59.20;25.80;;;;;;;1.03;69.41;100250.19;4380143;32;33444;-67
2022/03/05 03:46:26;;;;;;;55.22;25.20;;;;;;;1.01;69.21;100247.47;4392168;32;32495;-67
2022/03/05 03:48:54;;;;;;;62.22;25.92;;;;;;;1.07;69.12;100253.13;4379454;32;32446;-67
2022/03/05 03:51:22;;;;;;;57.38;26.10;;;;;;;1.04;68.96;100247.75;4393234;32;33996;-66
2022/03/05 03:53:49;;;;;;;45.65;23.08;;;;;;;1.01;69.53;100247.47;4392353;32;34261;-68
2022/03/05 03:56:17;;;;;;;52.75;24.70;;;;;;;1.60;67.27;100248.41;4393442;32;33401;-67
2022/03/05 03:58:44;;;;;;;58.20;25.17;;;;;;;1.08;68.47;100243.81;4392684;32;33455;-67
2022/03/05 04:01:12;;;;;;;48.08;22.50;;;;;;;1.33;67.44;100247.78;4390843;32;34597;-67
2022/03/05 04:03:40;;;;;;;49.70;23.73;;;;;;;0.88;68.64;100249.69;4391414;32;33714;-68
2022/03/05 04:06:07;;;;;;;52.03;24.80;;;;;;;0.76;69.33;100249.47;4375747;32;34038;-68
2022/03/05 04:08:41;;;;;;;48.33;23.17;;;;;;;0.93;68.85;100249.34;4388915;32;33730;-67
2022/03/05 04:11:11;;;;;;;47.88;22.30;;;;;;;0.76;69.49;100246.94;4391164;32;33834;-68
2022/03/05 04:13:39;;;;;;;52.33;22.15;;;;;;;1.25;68.40;100243.66;4392571;32;33467;-67
2022/03/05 04:16:06;;;;;;;48.25;22.50;;;;;;;1.26;67.84;100245.47;4391204;32;33712;-68
2022/03/05 04:18:35;;;;;;;42.38;20.80;;;;;;;0.77;69.14;100256.34;4392858;32;34012;-67
2022/03/05 04:21:02;;;;;;;48.60;22.73;;;;;;;0.68;69.19;100255.56;4392682;32;34349;-68
2022/03/05 04:23:30;;;;;;;46.40;22.65;;;;;;;0.50;69.48;100259.84;4392202;32;33204;-67
2022/03/05 04:25:58;;;;;;;43.08;20.08;;;;;;;0.51;69.22;100267.63;4392956;32;34023;-67
2022/03/05 04:28:26;;;;;;;37.35;18.70;;;;;;;0.59;68.59;100270.87;4393066;32;34114;-68
2022/03/05 04:30:53;;;;;;;42.92;19.15;;;;;;;0.89;67.76;100266.75;4392593;32;33859;-68
2022/03/05 04:33:22;;;;;;;37.83;18.25;;;;;;;1.17;66.31;100259.94;4392078;32;33271;-68
2022/03/05 04:35:49;;;;;;;36.80;17.37;;;;;;;1.36;64.79;100263.38;4387212;32;33435;-67
2022/03/05 04:38:17;;;;;;;39.97;16.95;;;;;;;1.04;65.26;100267.25;4386733;32;34538;-67
2022/03/05 04:40:44;;;;;;;33.42;16.12;;;;;;;0.58;66.49;100280.19;4392153;32;34050;-68
2022/03/05 04:43:12;;;;;;;40.38;16.55;;;;;;;0.88;66.18;100270.97;4392208;32;33577;-68
2022/03/05 04:45:40;;;;;;;36.97;16.75;;;;;;;0.77;66.93;100281.84;4392913;32;33285;-68
2022/03/05 04:48:08;;;;;;;33.13;16.73;;;;;;;0.90;66.66;100278.78;4393049;32;34718;-68
2022/03/05 04:50:36;;;;;;;34.05;16.45;;;;;;;1.04;66.06;100277.47;4392210;32;34001;-67
2022/03/05 04:53:04;;;;;;;34.50;16.27;;;;;;;0.83;66.93;100272.25;4389842;32;34415;-67
2022/03/05 04:55:31;;;;;;;37.38;17.45;;;;;;;0.66;67.91;100273.25;4392654;32;34284;-67
2022/03/05 04:57:59;;;;;;;33.88;17.45;;;;;;;0.75;67.75;100278.28;4392925;32;34035;-68
2022/03/05 05:00:26;;;;;;;42.03;18.50;;;;;;;0.72;67.94;100278.91;4390780;32;34622;-67
2022/03/05 05:02:54;;;;;;;37.97;17.55;;;;;;;0.67;67.96;100269.94;4392084;32;33036;-67
2022/03/05 05:05:22;;;;;;;39.03;17.92;;;;;;;0.89;67.20;100282.06;4391806;32;33973;-68
2022/03/05 05:07:50;;;;;;;38.45;16.70;;;;;;;1.12;66.21;100274.84;4390961;32;33690;-68
2022/03/05 05:10:17;;;;;;;42.10;19.77;;;;;;;1.04;65.98;100277.47;4377889;32;33423;-68
2022/03/05 05:12:45;;;;;;;40.65;18.37;;;;;;;0.95;66.21;100273.34;4386553;32;33503;-67
2022/03/05 05:15:12;;;;;;;36.72;17.37;;;;;;;0.78;66.95;100274.34;4392075;32;33908;-68
2022/03/05 05:17:40;;;;;;;37.22;17.45;;;;;;;1.00;66.45;100280.50;4391971;32;33696;-67
2022/03/05 05:20:08;;;;;;;37.58;17.25;;;;;;;0.92;66.95;100283.25;4391615;32;34671;-68
2022/03/05 05:22:35;;;;;;;37.78;15.35;;;;;;;0.93;66.55;100281.63;4390551;32;33694;-67
2022/03/05 05:25:04;;;;;;;38.58;16.45;;;;;;;1.13;65.96;100286.84;4378919;32;33416;-68
2022/03/05 05:27:39;;;;;;;30.77;14.52;;;;;;;1.23;65.61;100296.22;4379025;32;33594;-68
2022/03/05 05:30:07;;;;;;;29.70;14.23;;;;;;;1.09;65.88;100294.09;4390943;32;33949;-67
2022/03/05 05:32:35;;;;;;;27.40;13.82;;;;;;;1.08;65.88;100294.84;4392008;32;33486;-67
2022/03/05 05:35:03;;;;;;;33.90;14.15;;;;;;;0.92;66.26;100290.91;4390403;32;33835;-68
2022/03/05 05:37:31;;;;;;;33.17;14.52;;;;;;;1.13;65.76;100301.25;4390474;32;34447;-66
2022/03/05 05:39:58;;;;;;;32.67;13.90;;;;;;;0.83;66.47;100287.53;4389253;32;34684;-68
2022/03/05 05:42:26;;;;;;;31.80;14.35;;;;;;;1.09;65.80;100301.75;4376449;32;34135;-68
2022/03/05 05:44:54;;;;;;;29.73;13.50;;;;;;;0.81;66.70;100299.22;4389041;32;34006;-66
2022/03/05 05:47:22;;;;;;;29.48;13.57;;;;;;;0.90;66.72;100297.53;4370631;32;34674;-66
2022/03/05 05:49:51;;;;;;;30.80;13.95;;;;;;;1.06;66.50;100304.00;4388372;32;34554;-68
2022/03/05 05:52:19;;;;;;;33.17;14.43;;;;;;;1.31;65.33;100300.38;4378507;32;33631;-67
2022/03/05 05:54:46;;;;;;;30.65;14.52;;;;;;;1.01;66.56;100297.63;4391111;32;32521;-67
2022/03/05 05:57:13;;;;;;;33.60;16.20;;;;;;;1.06;66.48;100298.91;4391279;32;33916;-67
2022/03/05 05:59:41;;;;;;;30.92;14.05;;;;;;;1.41;65.52;100302.06;4389006;32;34435;-68
2022/03/05 06:02:09;;;;;;;32.60;15.45;;;;;;;1.50;64.71;100312.19;4388451;32;33497;-69
2022/03/05 06:04:37;;;;;;;33.95;15.05;;;;;;;1.54;64.66;100315.13;4390551;32;34198;-68
2022/03/05 06:07:04;;;;;;;35.00;14.32;;;;;;;1.08;66.58;100315.25;4396629;32;33998;-68
2022/03/05 06:09:32;;;;;;;28.15;14.73;;;;;;;1.25;66.17;100320.22;4391275;32;34168;-68
2022/03/05 06:11:59;;;;;;;34.28;15.80;;;;;;;1.26;66.49;100319.47;4390478;32;33133;-66
2022/03/05 06:14:28;;;;;;;31.60;14.70;;;;;;;1.07;67.39;100326.22;4393057;32;34077;-67
2022/03/05 06:16:55;;;;;;;33.15;14.93;;;;;;;1.10;66.67;100323.94;4379119;32;33106;-67
2022/03/05 06:19:23;;;;;;;33.75;15.20;;;;;;;1.34;65.45;100320.16;4392059;32;34459;-68
2022/03/05 06:21:51;;;;;;;32.45;14.65;;;;;;;1.27;65.60;100326.34;4393111;32;33324;-68
2022/03/05 06:24:20;;;;;;;32.40;15.15;;;;;;;1.32;65.79;100331.87;4381435;32;33850;-68
2022/03/05 06:26:47;;;;;;;30.75;13.88;;;;;;;1.63;65.00;100330.41;4393338;32;34179;-67
2022/03/05 06:29:15;;;;;;;31.48;14.25;;;;;;;2.78;61.90;100328.28;4379105;32;34655;-67
2022/03/05 06:31:42;;;;;;;32.72;13.62;;;;;;;2.39;61.88;100327.59;4396828;32;33622;-67
2022/03/05 06:34:10;;;;;;;35.88;15.85;;;;;;;2.32;62.70;100336.41;4393169;32;33970;-67
2022/03/05 06:36:38;;;;;;;34.33;16.08;;;;;;;2.15;63.24;100334.06;4393875;32;33921;-67
2022/03/05 06:39:05;;;;;;;31.58;14.87;;;;;;;2.39;62.38;100336.94;4393422;32;34690;-67
2022/03/05 06:41:33;;;;;;;41.42;19.60;;;;;;;2.25;62.92;100335.75;4393592;32;33544;-67
2022/03/05 06:44:01;;;;;;;40.38;18.08;;;;;;;2.47;62.03;100341.03;4392948;32;34218;-68
2022/03/05 06:46:28;;;;;;;36.63;16.12;;;;;;;2.59;61.69;100338.59;4393566;32;33726;-67
2022/03/05 06:48:56;;;;;;;41.88;18.05;;;;;;;2.33;61.84;100335.63;4388130;32;33825;-67
2022/03/05 06:51:23;;;;;;;36.53;16.67;;;;;;;2.70;61.45;100342.97;4389278;32;33981;-67
2022/03/05 06:53:51;;;;;;;36.95;17.75;;;;;;;2.32;62.31;100338.06;4391954;32;34420;-67
2022/03/05 06:56:18;;;;;;;38.95;18.30;;;;;;;2.49;62.20;100340.41;4390538;32;33706;-68
2022/03/05 06:58:46;;;;;;;34.50;15.70;;;;;;;2.44;63.05;100348.44;4391406;32;33782;-68
2022/03/05 07:01:13;;;;;;;32.55;15.45;;;;;;;2.37;62.65;100349.56;4392788;32;33652;-67
2022/03/05 07:03:41;;;;;;;32.40;15.10;;;;;;;2.33;62.83;100342.41;4391426;32;34474;-67
2022/03/05 07:06:08;;;;;;;33.38;15.82;;;;;;;2.41;62.54;100341.38;4395426;32;33738;-67
2022/03/05 07:08:36;;;;;;;31.60;15.57;;;;;;;2.37;62.01;100341.91;4393102;32;33985;-67
2022/03/05 07:11:04;;;;;;;32.47;14.85;;;;;;;2.35;61.51;100340.88;4390203;32;33611;-67
2022/03/05 07:13:32;;;;;;;28.90;13.43;;;;;;;2.17;61.84;100348.75;4391719;32;34620;-67
2022/03/05 07:16:00;;;;;;;26.77;12.70;;;;;;;2.42;61.57;100345.75;4392024;32;34622;-66
2022/03/05 07:18:27;;;;;;;29.77;14.02;;;;;;;2.51;61.62;100345.63;4391740;32;33965;-69
2022/03/05 07:20:57;;;;;;;28.15;13.32;;;;;;;2.49;61.35;100350.62;4392745;32;33711;-67
2022/03/05 07:23:25;;;;;;;31.58;12.88;;;;;;;2.61;59.60;100349.84;4393469;32;34645;-68
2022/03/05 07:25:52;;;;;;;25.92;12.43;;;;;;;2.69;59.40;100351.44;4392779;32;34058;-67
2022/03/05 07:28:20;;;;;;;26.67;12.37;;;;;;;2.56;59.63;100352.94;4391819;32;34041;-67
2022/03/05 07:30:47;;;;;;;27.27;11.88;;;;;;;2.42;60.06;100350.88;4375326;32;31815;-68
2022/03/05 07:33:15;;;;;;;22.50;11.18;;;;;;;2.19;59.94;100345.44;4391005;32;33961;-67
2022/03/05 07:35:43;;;;;;;23.87;10.13;;;;;;;2.61;59.00;100354.97;4391630;32;33854;-68
2022/03/05 07:38:10;;;;;;;19.30;8.98;;;;;;;2.99;58.30;100359.88;4391893;32;34223;-67
2022/03/05 07:40:38;;;;;;;21.08;9.35;;;;;;;3.13;57.04;100359.37;4393205;32;33219;-68
2022/03/05 07:43:05;;;;;;;20.75;8.82;;;;;;;3.59;56.16;100352.87;4397888;32;34033;-69
2022/03/05 07:45:33;;;;;;;17.08;8.73;;;;;;;3.30;55.76;100356.56;4394273;32;33973;-68
2022/03/05 07:48:00;;;;;;;25.05;10.32;;;;;;;3.31;56.20;100357.44;4391422;32;34706;-69
2022/03/05 07:50:28;;;;;;;18.75;10.00;;;;;;;3.52;56.07;100359.19;4381474;32;32230;-67
2022/03/05 07:52:55;;;;;;;19.83;9.70;;;;;;;4.37;54.08;100347.97;4377491;32;33832;-68
2022/03/05 07:55:23;;;;;;;19.40;9.45;;;;;;;5.27;52.95;100356.56;4385485;32;33645;-69
2022/03/05 07:57:51;;;;;;;19.60;9.40;;;;;;;5.52;52.01;100360.91;4373928;32;33279;-69
2022/03/05 08:00:19;;;;;;;18.40;8.90;;;;;;;5.89;50.15;100363.59;4373799;32;33336;-67
2022/03/05 08:02:50;;;;;;;20.70;8.88;;;;;;;5.67;50.83;100363.72;4387237;32;33863;-70
2022/03/05 08:05:18;;;;;;;19.58;9.25;;;;;;;5.19;51.85;100367.91;4387350;32;33657;-69
2022/03/05 08:07:46;;;;;;;21.17;9.40;;;;;;;5.50;51.26;100380.47;4387130;32;33937;-67
2022/03/05 08:10:14;;;;;;;18.05;9.07;;;;;;;5.59;50.62;100365.72;4374186;32;34288;-68
2022/03/05 08:12:42;;;;;;;18.15;7.90;;;;;;;5.08;52.08;100372.25;4386700;32;34566;-68
2022/03/05 08:15:10;;;;;;;15.90;7.32;;;;;;;5.37;51.39;100372.63;4387489;32;33887;-68
2022/03/05 08:18:00;;;;;;;16.02;8.38;;;;;;;5.84;50.52;100372.66;4372979;32;32602;-68
2022/03/05 08:20:30;;;;;;;18.52;9.07;;;;;;;5.77;50.61;100365.28;4385384;32;34220;-67
2022/03/05 08:22:58;;;;;;;14.70;7.07;;;;;;;5.59;50.95;100372.56;4385300;32;34372;-66
2022/03/05 08:25:26;;;;;;;16.35;7.95;;;;;;;5.93;50.21;100368.19;4388546;32;32437;-69
2022/03/05 08:27:54;;;;;;;15.25;8.02;;;;;;;6.18;49.57;100360.59;4384256;32;32794;-68
2022/03/05 08:30:23;;;;;;;20.95;9.27;;;;;;;6.20;49.36;100363.25;4378891;32;33352;-67
2022/03/05 08:32:50;;;;;;;16.30;8.85;;;;;;;6.47;48.90;100370.38;4390853;32;34447;-66
2022/03/05 08:35:19;;;;;;;16.45;8.57;;;;;;;6.41;49.16;100369.94;4384008;32;33948;-68
2022/03/05 08:37:48;;;;;;;21.25;10.63;;;;;;;6.50;48.67;100375.72;4392333;32;33823;-67
2022/03/05 08:40:15;;;;;;;19.27;9.48;;;;;;;6.58;49.53;100376.25;4392461;32;34153;-69
2022/03/05 08:42:43;;;;;;;30.92;15.05;;;;;;;6.57;49.21;100383.88;4390992;32;34485;-67
2022/03/05 08:45:11;;;;;;;31.52;14.77;;;;;;;6.60;48.72;100386.66;4389728;32;34968;-69
2022/03/05 08:47:38;;;;;;;25.05;12.02;;;;;;;6.17;49.62;100378.50;4390674;32;33909;-67
2022/03/05 08:50:06;;;;;;;25.00;12.23;;;;;;;6.71;48.28;100379.69;4390750;32;34243;-70
2022/03/05 08:52:37;;;;;;;21.92;12.20;;;;;;;6.41;49.51;100375.09;4389958;32;33754;-70
2022/03/05 08:55:11;;;;;;;21.17;10.73;;;;;;;6.62;48.79;100379.94;4387892;32;34800;-66
2022/03/05 08:57:39;;;;;;;18.95;10.02;;;;;;;6.83;48.29;100381.41;4387006;32;34015;-71
2022/03/05 09:00:09;;;;;;;22.02;10.13;;;;;;;6.36;49.29;100376.44;4395276;32;32265;-69
2022/03/05 09:02:36;;;;;;;20.52;10.80;;;;;;;6.62;48.48;100379.94;4391497;32;33825;-69
2022/03/05 09:05:04;;;;;;;19.02;9.80;;;;;;;6.60;48.40;100377.25;4393629;32;33873;-64
2022/03/05 09:07:32;;;;;;;20.20;10.60;;;;;;;6.76;47.85;100374.06;4393765;32;33360;-66
2022/03/05 09:09:59;;;;;;;18.10;9.63;;;;;;;6.55;48.02;100380.28;4391566;32;32238;-68
2022/03/05 09:12:27;;;;;;;20.52;9.13;;;;;;;6.65;47.75;100373.31;4386424;32;33695;-67
2022/03/05 09:14:54;;;;;;;17.05;9.18;;;;;;;6.87;47.30;100373.09;4388651;32;33855;-67
2022/03/05 09:17:22;;;;;;;20.12;8.65;;;;;;;6.94;46.60;100373.56;4389979;32;33923;-67
2022/03/05 09:19:49;;;;;;;19.27;9.38;;;;;;;7.17;45.61;100368.28;4389633;32;33156;-69
2022/03/05 09:22:17;;;;;;;17.42;8.18;;;;;;;6.63;46.94;100371.44;4388746;32;34678;-69
2022/03/05 09:24:45;;;;;;;15.88;7.95;;;;;;;6.71;46.13;100364.25;4388881;32;33953;-67
2022/03/05 09:27:13;;;;;;;16.05;7.82;;;;;;;5.96;46.55;100368.44;4374885;32;32767;-68
2022/03/05 09:29:40;;;;;;;15.43;7.00;;;;;;;6.28;44.73;100363.03;4390974;32;33513;-68
2022/03/05 09:32:09;;;;;;;15.43;7.87;;;;;;;6.12;44.96;100360.13;4388991;32;33830;-68
2022/03/05 09:34:37;;;;;;;18.92;8.32;;;;;;;6.05;44.96;100361.38;4388723;32;32784;-69
2022/03/05 09:37:04;;;;;;;16.02;8.18;;;;;;;6.14;44.47;100367.97;4391115;32;33922;-67
2022/03/05 09:39:32;;;;;;;50.70;24.02;;;;;;;6.17;44.70;100368.19;4379102;32;34207;-70
2022/03/05 09:42:00;;;;;;;19.98;9.13;;;;;;;6.01;45.14;100361.97;4392461;32;34207;-69
2022/03/05 09:44:28;;;;;;;18.05;8.80;;;;;;;6.14;45.29;100367.97;4390388;32;34773;-69
2022/03/05 09:46:56;;;;;;;14.48;7.37;;;;;;;6.65;44.43;100365.59;4393453;32;33845;-66
2022/03/05 09:49:26;;;;;;;16.37;8.13;;;;;;;6.68;43.88;100359.75;4378110;32;33452;-70
2022/03/05 09:51:55;;;;;;;17.40;8.55;;;;;;;7.16;42.41;100357.84;4390120;32;33624;-66
2022/03/05 09:54:24;;;;;;;16.77;7.95;;;;;;;6.71;42.94;100352.25;4365357;32;33722;-68
2022/03/05 09:56:51;;;;;;;24.23;11.27;;;;;;;6.58;42.33;100367.62;4392002;32;34596;-67
2022/03/05 09:59:19;;;;;;;15.60;7.87;;;;;;;6.71;41.39;100362.56;4389947;32;33477;-67
2022/03/05 10:01:46;;;;;;;14.63;7.35;;;;;;;6.58;41.98;100367.62;4390739;32;34838;-68
2022/03/05 10:04:20;;;;;;;15.55;8.68;;;;;;;6.30;42.81;100364.03;4379326;32;33011;-67
2022/03/05 10:07:16;;;;;;;17.67;8.60;;;;;;;6.35;42.50;100361.75;4392564;32;33851;-67
2022/03/05 10:09:46;;;;;;;16.37;8.02;;;;;;;7.01;41.00;100361.19;4390539;32;34155;-70
2022/03/05 10:12:31;;;;;;;18.67;9.00;;;;;;;7.61;39.06;100361.69;4377617;32;33071;-70
2022/03/05 10:15:05;;;;;;;21.15;10.85;;;;;;;6.98;41.19;100354.94;4389438;32;34028;-67
2022/03/05 10:17:47;;;;;;;16.30;7.60;;;;;;;7.03;40.25;100357.03;4393974;32;34762;-68
2022/03/05 10:20:14;;;;;;;16.77;7.72;;;;;;;6.66;41.40;100353.59;4390387;32;33583;-68
2022/03/05 10:23:02;;;;;;;15.40;8.07;;;;;;;6.23;41.72;100355.75;4392028;32;33787;-67
2022/03/05 10:25:29;;;;;;;16.05;7.55;;;;;;;7.29;39.69;100350.16;4393502;32;34038;-68
2022/03/05 10:28:00;;;;;;;13.65;7.30;;;;;;;7.17;40.20;100352.81;4392558;32;34710;-68
2022/03/05 10:30:34;;;;;;;16.48;9.82;;;;;;;7.60;38.99;100340.16;4393783;32;33584;-67
2022/03/05 10:33:02;;;;;;;18.30;7.40;;;;;;;8.08;38.61;100341.53;4392804;32;34123;-68
2022/03/05 10:35:30;;;;;;;13.45;6.97;;;;;;;8.55;37.31;100337.56;4393441;32;33514;-67
2022/03/05 10:37:57;;;;;;;14.45;6.90;;;;;;;7.93;38.47;100343.13;4378894;32;34238;-67
2022/03/05 10:40:33;;;;;;;16.58;8.30;;;;;;;8.08;37.89;100341.53;4393010;32;33995;-67
2022/03/05 10:43:04;;;;;;;15.48;7.78;;;;;;;8.15;37.43;100336.75;4391011;32;34641;-68
2022/03/05 10:45:52;;;;;;;15.48;8.18;;;;;;;7.61;39.48;100334.22;4389664;32;33821;-67
2022/03/05 10:48:31;;;;;;;16.35;8.40;;;;;;;7.97;38.31;100334.78;4392604;32;34016;-68
2022/03/05 10:51:10;;;;;;;13.98;6.75;;;;;;;7.81;38.50;100335.50;4393137;32;33449;-67
2022/03/05 10:53:40;;;;;;;14.80;7.20;;;;;;;7.35;38.91;100342.81;4393679;32;33631;-68
2022/03/05 10:56:22;;;;;;;13.43;6.45;;;;;;;7.66;37.85;100337.97;4391562;32;33212;-68
2022/03/05 10:59:00;;;;;;;14.35;6.55;;;;;;;8.01;36.65;100336.78;4391915;32;34482;-69
2022/03/05 11:01:28;;;;;;;16.52;7.55;;;;;;;8.50;36.43;100330.34;4390074;32;34203;-71
2022/03/05 11:03:56;;;;;;;16.08;7.20;;;;;;;7.61;37.87;100336.81;4392828;32;34640;-70
2022/03/05 11:06:25;;;;;;;16.00;8.52;;;;;;;8.50;36.43;100330.34;4393950;32;34471;-70
2022/03/05 11:08:53;;;;;;;16.25;7.28;;;;;;;8.23;36.79;100325.25;4389296;32;32438;-68
2022/03/05 11:11:21;;;;;;;14.93;7.82;;;;;;;8.61;36.78;100325.03;4400445;32;33268;-66
2022/03/05 11:13:49;;;;;;;14.98;8.00;;;;;;;9.25;35.08;100322.84;4391727;32;34069;-67
2022/03/05 11:16:16;;;;;;;14.07;6.75;;;;;;;9.23;35.09;100321.84;4391155;32;33783;-68
2022/03/05 11:18:44;;;;;;;13.32;7.05;;;;;;;8.67;36.01;100324.50;4389753;32;33618;-68
2022/03/05 11:21:12;;;;;;;13.27;6.93;;;;;;;8.61;35.87;100329.31;4390410;32;33378;-67
2022/03/05 11:23:41;;;;;;;12.52;6.45;;;;;;;8.03;37.38;100316.22;4392940;32;33937;-69
2022/03/05 11:26:09;;;;;;;13.57;6.95;;;;;;;8.62;36.11;100310.44;4388746;32;34802;-69